Time;durP1;ratioP1;P1;durP2;ratioP2;P2;SDS_P1;SDS_P2;PMS_P1;PMS_P2;Temp;Humidity;BMP_temperature;BMP_pressure;BME280_temperature;BME280_humidity;BME280_pressure;Samples;Min_cycle;Max_cycle;Signal;HPM_P1;HPM_P2
2021/05/02 00:00:19;;;;;;;16.02;3.13;;;;;;;18.81;50.59;93460.22;5133730;27;20027;-71
2021/05/02 00:02:45;;;;;;;9.88;2.90;;;;;;;18.81;51.11;93459.47;5134582;27;20109;-71
2021/05/02 00:05:14;;;;;;;14.93;3.03;;;;;;;18.81;51.25;93470.25;5131191;27;20107;-71
2021/05/02 00:07:39;;;;;;;17.38;2.97;;;;;;;18.81;50.91;93456.75;5131826;27;20111;-71
2021/05/02 00:10:07;;;;;;;11.38;2.92;;;;;;;18.84;51.14;93461.41;5133381;27;20063;-71
2021/05/02 00:12:32;;;;;;;13.55;3.33;;;;;;;18.82;51.77;93447.50;5133068;27;20047;-71
2021/05/02 00:14:58;;;;;;;15.55;2.55;;;;;;;18.80;52.19;93439.75;5134402;27;20066;-71
2021/05/02 00:17:25;;;;;;;20.52;4.05;;;;;;;18.78;52.68;93433.94;5131382;27;20474;-70
2021/05/02 00:19:51;;;;;;;12.23;4.03;;;;;;;18.76;52.70;93438.16;5132241;27;20039;-71
2021/05/02 00:22:18;;;;;;;16.63;4.05;;;;;;;18.68;52.65;93428.47;5134276;27;20443;-71
2021/05/02 00:24:45;;;;;;;14.50;4.63;;;;;;;18.67;52.57;93426.94;5118488;27;20027;-71
2021/05/02 00:27:11;;;;;;;15.15;3.08;;;;;;;18.68;52.53;93428.47;5130366;27;20443;-71
2021/05/02 00:29:40;;;;;;;19.50;3.10;;;;;;;18.65;52.86;93430.00;5132371;27;20034;-71
2021/05/02 00:32:06;;;;;;;11.65;2.83;;;;;;;18.62;52.50;93441.53;5133551;27;20035;-71
2021/05/02 00:34:34;;;;;;;18.42;4.72;;;;;;;18.58;53.21;93430.72;5130414;27;20026;-71
2021/05/02 00:37:00;;;;;;;30.38;6.60;;;;;;;18.57;53.46;93437.25;5132021;27;20048;-71
2021/05/02 00:39:26;;;;;;;32.03;5.82;;;;;;;18.53;53.39;93433.00;5132537;27;20027;-71
2021/05/02 00:41:57;;;;;;;25.13;5.43;;;;;;;18.52;53.07;93434.91;5130660;27;20034;-71
2021/05/02 00:44:32;;;;;;;27.77;5.53;;;;;;;18.46;53.16;93417.53;5131859;27;20050;-71
2021/05/02 00:47:36;;;;;;;28.85;5.75;;;;;;;18.44;53.34;93417.13;5132612;27;20035;-70
2021/05/02 00:50:15;;;;;;;15.95;4.15;;;;;;;18.35;53.44;93405.84;5090760;27;21606;-70
2021/05/02 00:52:47;;;;;;;11.90;3.88;;;;;;;18.36;52.70;93402.78;5131508;27;20080;-70
2021/05/02 00:55:20;;;;;;;24.83;4.90;;;;;;;18.34;53.53;93386.19;5132826;27;20026;-70
2021/05/02 00:57:59;;;;;;;21.73;3.70;;;;;;;18.32;53.38;93390.41;5132498;27;20106;-70
2021/05/02 01:00:28;;;;;;;19.48;5.05;;;;;;;18.28;53.51;93378.81;5131348;27;20027;-70
2021/05/02 01:02:58;;;;;;;10.38;3.67;;;;;;;18.19;53.15;93361.03;5129939;27;20019;-70
2021/05/02 01:05:24;;;;;;;10.10;3.03;;;;;;;18.24;52.53;93370.72;5132368;27;20043;-71
2021/05/02 01:07:55;;;;;;;12.43;3.20;;;;;;;18.23;52.72;93372.59;5117575;27;20038;-70
2021/05/02 01:10:21;;;;;;;11.73;2.45;;;;;;;18.22;52.78;93373.00;5131502;27;20027;-71
2021/05/02 01:12:52;;;;;;;12.23;4.28;;;;;;;18.25;52.87;93375.72;5133188;27;20102;-70
2021/05/02 01:15:24;;;;;;;14.48;3.33;;;;;;;18.25;53.23;93370.31;5128526;27;20031;-70
2021/05/02 01:17:59;;;;;;;12.98;2.92;;;;;;;18.07;53.51;93360.53;5131052;27;20072;-70
2021/05/02 01:20:30;;;;;;;13.80;2.92;;;;;;;17.97;53.87;93370.06;5129177;27;20031;-70
2021/05/02 01:23:26;;;;;;;16.08;3.08;;;;;;;17.87;53.81;93359.97;5128371;27;20084;-71
2021/05/02 01:25:59;;;;;;;16.20;3.30;;;;;;;17.76;54.42;93376.78;5122272;27;20087;-70
2021/05/02 01:28:26;;;;;;;10.75;2.80;;;;;;;17.72;54.13;93384.06;5128447;27;20039;-71
2021/05/02 01:30:53;;;;;;;15.10;2.83;;;;;;;17.72;54.23;93378.66;5138795;27;20035;-70
2021/05/02 01:33:18;;;;;;;12.88;3.42;;;;;;;17.71;54.38;93363.66;5132815;27;20490;-71
2021/05/02 01:35:45;;;;;;;21.67;3.60;;;;;;;17.75;54.64;93361.78;5129151;27;20122;-71
2021/05/02 01:38:12;;;;;;;15.27;4.00;;;;;;;17.74;54.28;93340.56;5128044;27;20141;-71
2021/05/02 01:40:38;;;;;;;19.13;4.97;;;;;;;17.75;54.30;93342.91;5129084;27;20591;-70
2021/05/02 01:43:04;;;;;;;20.08;4.90;;;;;;;17.79;54.23;93327.53;5132564;27;20031;-70
2021/05/02 01:45:30;;;;;;;18.25;3.30;;;;;;;17.75;53.51;93340.22;5128958;27;20526;-70
2021/05/02 01:48:04;;;;;;;11.00;3.72;;;;;;;17.79;53.39;93354.50;5119496;27;20180;-70
2021/05/02 01:50:41;;;;;;;19.55;3.90;;;;;;;17.80;53.58;93363.34;5130254;27;20117;-69
2021/05/02 01:53:07;;;;;;;11.45;4.18;;;;;;;17.81;53.42;93352.19;5132275;27;20050;-70
2021/05/02 01:55:33;;;;;;;17.25;4.40;;;;;;;17.82;53.96;93358.34;5131605;27;20547;-70
2021/05/02 01:57:59;;;;;;;19.50;3.58;;;;;;;17.76;53.65;93336.34;5132166;27;20023;-70
2021/05/02 02:00:24;;;;;;;14.40;4.72;;;;;;;17.74;54.41;93362.91;5129120;27;20511;-70
2021/05/02 02:02:51;;;;;;;16.63;3.05;;;;;;;17.76;54.01;93365.22;5111721;28;20023;-70
2021/05/02 02:05:19;;;;;;;12.60;3.67;;;;;;;17.68;53.53;93358.22;5127554;27;20027;-71
2021/05/02 02:07:45;;;;;;;14.02;3.25;;;;;;;17.60;54.21;93352.75;5127755;27;20023;-70
2021/05/02 02:10:10;;;;;;;12.43;2.67;;;;;;;17.53;54.64;93341.13;5122959;27;20027;-71
2021/05/02 02:12:36;;;;;;;15.15;3.05;;;;;;;17.45;54.82;93386.06;5146843;27;20031;-70
2021/05/02 02:15:03;;;;;;;14.00;2.85;;;;;;;17.40;54.53;93379.09;5132087;27;20099;-70
2021/05/02 02:17:28;;;;;;;14.40;3.20;;;;;;;17.36;55.04;93358.63;5128442;27;20026;-70
2021/05/02 02:19:55;;;;;;;9.00;3.72;;;;;;;17.31;55.35;93357.06;5128681;27;20385;-70
2021/05/02 02:22:22;;;;;;;18.88;3.65;;;;;;;17.34;55.09;93369.81;5130534;27;20026;-70
2021/05/02 02:24:51;;;;;;;20.02;3.08;;;;;;;17.29;55.13;93343.19;5130431;27;20034;-70
2021/05/02 02:27:16;;;;;;;14.02;3.58;;;;;;;17.28;55.56;93373.97;5130363;27;20053;-70
2021/05/02 02:29:47;;;;;;;12.50;3.90;;;;;;;17.30;55.65;93365.50;5130532;27;20023;-70
2021/05/02 02:32:14;;;;;;;9.50;3.05;;;;;;;17.30;55.38;93344.75;5130046;27;20522;-70
2021/05/02 02:34:47;;;;;;;18.10;3.80;;;;;;;17.34;55.39;93350.94;5130460;27;20119;-70
2021/05/02 02:37:18;;;;;;;13.30;4.15;;;;;;;17.36;55.86;93345.16;5130152;27;20083;-71
2021/05/02 02:39:47;;;;;;;12.77;3.35;;;;;;;17.31;56.50;93346.28;5131609;27;20025;-70
2021/05/02 02:42:14;;;;;;;14.38;4.93;;;;;;;17.35;56.87;93338.25;5130481;27;20027;-70
2021/05/02 02:44:53;;;;;;;13.80;3.83;;;;;;;17.40;57.17;93351.38;5130022;27;20505;-70
2021/05/02 02:47:25;;;;;;;13.60;3.65;;;;;;;17.37;57.03;93352.13;5127418;27;20035;-70
2021/05/02 02:49:56;;;;;;;11.60;3.47;;;;;;;17.27;57.12;93348.16;5131452;27;20034;-70
2021/05/02 02:52:24;;;;;;;17.98;3.42;;;;;;;17.21;57.66;93344.25;5126708;27;20030;-70
2021/05/02 02:55:06;;;;;;;18.23;3.67;;;;;;;17.16;57.88;93376.91;5129863;27;20091;-71
2021/05/02 02:57:41;;;;;;;17.63;5.25;;;;;;;17.10;58.25;93348.75;5130987;27;20031;-70
2021/05/02 03:00:07;;;;;;;23.83;4.07;;;;;;;17.10;58.39;93362.22;5115155;27;20019;-69
2021/05/02 03:02:36;;;;;;;14.63;4.47;;;;;;;17.05;58.44;93369.44;5118309;27;20026;-70
2021/05/02 03:05:04;;;;;;;23.33;4.38;;;;;;;17.06;58.43;93378.31;5129930;27;20399;-69
2021/05/02 03:07:33;;;;;;;16.90;3.83;;;;;;;16.99;58.81;93372.81;5129762;27;20451;-71
2021/05/02 03:09:59;;;;;;;13.73;3.67;;;;;;;16.98;59.05;93372.06;5131280;27;20023;-71
2021/05/02 03:12:25;;;;;;;13.80;4.45;;;;;;;16.97;59.30;93354.34;5122377;27;20026;-71
2021/05/02 03:14:52;;;;;;;19.40;4.57;;;;;;;16.98;59.68;93368.59;5126205;27;20023;-71
2021/05/02 03:17:21;;;;;;;14.65;3.95;;;;;;;16.89;59.57;93352.69;5128279;27;20027;-71
2021/05/02 03:19:57;;;;;;;18.13;4.32;;;;;;;16.90;59.68;93365.03;5121119;27;20054;-71
2021/05/02 03:22:34;;;;;;;19.48;4.68;;;;;;;16.94;59.81;93365.84;5126410;27;20027;-71
2021/05/02 03:25:01;;;;;;;15.63;4.40;;;;;;;16.95;59.49;93362.00;5125979;27;20023;-72
2021/05/02 03:27:34;;;;;;;15.10;4.32;;;;;;;16.90;59.84;93367.72;5110410;28;20041;-71
2021/05/02 03:30:06;;;;;;;14.73;3.22;;;;;;;16.90;59.64;93364.25;5144630;27;20432;-71
2021/05/02 03:32:34;;;;;;;15.45;3.08;;;;;;;16.89;60.05;93365.38;5129385;27;20494;-72
2021/05/02 03:35:02;;;;;;;17.55;4.43;;;;;;;16.83;59.86;93364.91;5126793;28;20034;-71
2021/05/02 03:37:32;;;;;;;11.10;3.67;;;;;;;16.84;59.52;93383.41;5126111;28;20043;-70
2021/05/02 03:39:58;;;;;;;15.57;4.25;;;;;;;16.87;59.70;93370.34;5126303;28;20031;-71
2021/05/02 03:42:23;;;;;;;13.90;3.75;;;;;;;16.91;59.89;93368.47;5128780;27;20106;-71
2021/05/02 03:44:49;;;;;;;12.15;3.15;;;;;;;16.94;59.82;93359.69;5127435;28;20442;-71
2021/05/02 03:47:14;;;;;;;9.38;3.60;;;;;;;16.89;60.23;93368.84;5127187;27;20560;-71
2021/05/02 03:49:40;;;;;;;21.88;4.10;;;;;;;16.88;59.95;93361.91;5129484;28;20421;-70
2021/05/02 03:52:06;;;;;;;18.08;3.30;;;;;;;16.94;59.79;93386.63;5129314;27;20520;-70
2021/05/02 03:54:31;;;;;;;23.77;3.80;;;;;;;16.95;59.47;93372.00;5122061;27;20110;-71
2021/05/02 03:56:56;;;;;;;19.52;3.55;;;;;;;16.98;59.27;93355.91;5116867;27;20084;-70
2021/05/02 03:59:24;;;;;;;15.75;3.40;;;;;;;17.04;59.68;93375.22;5127934;28;20508;-70
2021/05/02 04:01:54;;;;;;;17.70;4.07;;;;;;;17.07;58.99;93362.91;5128151;27;20019;-70
2021/05/02 04:04:25;;;;;;;15.63;3.28;;;;;;;17.11;58.58;93358.34;5125808;28;20068;-70
2021/05/02 04:06:51;;;;;;;15.57;3.22;;;;;;;17.19;58.54;93376.16;5125962;28;20467;-71
2021/05/02 04:09:17;;;;;;;14.63;3.45;;;;;;;17.24;58.95;93373.91;5128919;27;20023;-71
2021/05/02 04:11:44;;;;;;;9.75;3.33;;;;;;;17.32;58.52;93379.38;5129111;27;20030;-71
2021/05/02 04:14:12;;;;;;;14.45;3.42;;;;;;;17.40;58.34;93365.63;5130269;27;20027;-71
2021/05/02 04:16:38;;;;;;;14.88;3.22;;;;;;;17.44;58.38;93361.06;5125859;28;20392;-71
2021/05/02 04:19:06;;;;;;;15.77;4.00;;;;;;;17.41;58.42;93364.47;5129511;27;20023;-71
2021/05/02 04:21:32;;;;;;;18.80;3.45;;;;;;;17.48;58.39;93365.69;5132922;27;20474;-71
2021/05/02 04:23:58;;;;;;;13.80;3.90;;;;;;;17.47;57.63;93375.72;5134511;27;20030;-71
2021/05/02 04:26:24;;;;;;;18.17;4.18;;;;;;;17.48;58.30;93360.31;5133370;27;20401;-71
2021/05/02 04:28:49;;;;;;;20.13;4.45;;;;;;;17.55;58.27;93365.78;5132672;27;20053;-71
2021/05/02 04:31:15;;;;;;;15.18;4.95;;;;;;;17.62;58.04;93371.25;5133049;27;20015;-71
2021/05/02 04:33:40;;;;;;;19.42;3.85;;;;;;;17.69;57.88;93371.34;5132780;27;20113;-71
2021/05/02 04:36:06;;;;;;;16.23;3.85;;;;;;;17.74;57.56;93354.03;5133947;27;20470;-71
2021/05/02 04:38:32;;;;;;;24.10;4.47;;;;;;;17.84;57.49;93354.16;5134186;27;20055;-71
2021/05/02 04:40:58;;;;;;;13.10;3.97;;;;;;;17.92;57.64;93373.88;5133842;27;20080;-71
2021/05/02 04:43:26;;;;;;;14.80;3.42;;;;;;;17.95;57.38;93358.88;5129785;27;20102;-71
2021/05/02 04:45:51;;;;;;;16.30;4.25;;;;;;;17.87;57.29;93347.28;5133793;27;20047;-71
2021/05/02 04:48:17;;;;;;;16.70;3.83;;;;;;;17.95;57.27;93350.78;5131191;27;20118;-71
2021/05/02 04:50:42;;;;;;;16.10;4.40;;;;;;;18.05;57.07;93377.06;5129356;27;20023;-71
2021/05/02 04:53:08;;;;;;;14.25;3.53;;;;;;;18.10;57.08;93384.84;5125428;27;20027;-71
2021/05/02 04:55:34;;;;;;;16.02;3.70;;;;;;;18.17;57.38;93382.19;5113158;27;20027;-70
2021/05/02 04:58:01;;;;;;;24.65;4.10;;;;;;;18.13;57.17;93365.19;5131109;27;20478;-70
2021/05/02 05:00:28;;;;;;;15.85;3.40;;;;;;;18.21;57.08;93363.34;5136003;27;20033;-70
2021/05/02 05:02:56;;;;;;;14.45;3.67;;;;;;;18.24;55.87;93341.81;5136088;27;20072;-70
2021/05/02 05:05:21;;;;;;;12.48;3.00;;;;;;;18.36;55.40;93350.75;5120263;27;20055;-71
2021/05/02 05:07:47;;;;;;;14.55;3.58;;;;;;;18.49;54.94;93340.44;5136301;27;20019;-71
2021/05/02 05:10:12;;;;;;;12.93;3.33;;;;;;;18.43;54.32;93335.38;5131068;27;20030;-70
2021/05/02 05:12:39;;;;;;;14.35;2.97;;;;;;;18.48;54.19;93350.47;5135223;27;20031;-70
2021/05/02 05:15:06;;;;;;;25.75;3.70;;;;;;;18.65;54.02;93344.41;5137149;27;20515;-71
2021/05/02 05:17:32;;;;;;;13.18;3.25;;;;;;;18.66;53.74;93345.16;5128623;27;20035;-71
2021/05/02 05:19:57;;;;;;;18.15;4.07;;;;;;;18.62;53.15;93349.75;5124197;27;20035;-71
2021/05/02 05:22:23;;;;;;;16.85;4.07;;;;;;;18.74;54.23;93364.88;5125385;27;20042;-71
2021/05/02 05:24:48;;;;;;;14.00;3.10;;;;;;;18.76;53.03;93349.84;5132424;27;20059;-70
2021/05/02 05:27:14;;;;;;;18.63;3.38;;;;;;;18.81;52.77;93362.28;5132212;27;20094;-71
2021/05/02 05:29:39;;;;;;;13.82;3.03;;;;;;;18.92;53.56;93365.78;5115767;28;20099;-71
2021/05/02 05:32:05;;;;;;;16.83;3.90;;;;;;;18.91;51.92;93377.75;5118448;27;20028;-71
2021/05/02 05:34:31;;;;;;;17.67;4.63;;;;;;;18.97;51.69;93367.34;5130951;27;20038;-71
2021/05/02 05:36:57;;;;;;;17.25;3.55;;;;;;;19.08;51.63;93386.31;5131592;27;20470;-70
2021/05/02 05:39:23;;;;;;;9.73;2.83;;;;;;;19.25;50.71;93385.63;5135170;27;20406;-70
2021/05/02 05:41:48;;;;;;;17.33;4.18;;;;;;;19.25;50.48;93380.22;5132501;27;20031;-71
2021/05/02 05:44:14;;;;;;;19.70;4.00;;;;;;;19.24;51.67;93382.16;5133727;27;20383;-70
2021/05/02 05:46:39;;;;;;;10.48;3.28;;;;;;;19.26;50.78;93381.00;5126547;27;20111;-70
2021/05/02 05:49:04;;;;;;;13.18;3.05;;;;;;;19.29;51.02;93370.19;5131107;27;20102;-71
2021/05/02 05:51:37;;;;;;;16.55;2.63;;;;;;;19.50;50.01;93379.53;5132326;27;20091;-70
2021/05/02 05:54:03;;;;;;;12.05;3.03;;;;;;;19.62;49.93;93371.09;5138780;27;20028;-70
2021/05/02 05:56:29;;;;;;;17.55;3.28;;;;;;;19.76;50.19;93359.56;5115233;28;20462;-71
2021/05/02 05:58:54;;;;;;;16.15;3.70;;;;;;;19.98;48.81;93366.56;5128688;27;20041;-70
2021/05/02 06:01:20;;;;;;;12.90;3.65;;;;;;;19.93;48.19;93363.47;5115584;28;20447;-71
2021/05/02 06:03:45;;;;;;;16.42;3.58;;;;;;;19.97;48.31;93375.09;5119854;27;20029;-70
2021/05/02 06:06:10;;;;;;;24.35;3.88;;;;;;;20.13;47.83;93372.78;5114697;28;20028;-71
2021/05/02 06:08:36;;;;;;;12.60;3.40;;;;;;;20.29;48.70;93368.91;5127654;27;20059;-70
2021/05/02 06:11:01;;;;;;;24.23;3.40;;;;;;;20.34;48.69;93382.84;5123397;27;20063;-70
2021/05/02 06:13:27;;;;;;;11.63;2.60;;;;;;;20.50;48.29;93374.34;5116863;27;20023;-71
2021/05/02 06:15:52;;;;;;;18.95;4.32;;;;;;;20.68;47.95;93387.09;5132113;27;20470;-71
2021/05/02 06:18:18;;;;;;;17.65;3.55;;;;;;;20.81;47.46;93370.06;5133989;27;20030;-70
2021/05/02 06:20:43;;;;;;;17.75;3.83;;;;;;;20.97;47.25;93383.19;5130200;27;20023;-71
2021/05/02 06:23:09;;;;;;;14.25;3.55;;;;;;;21.11;46.83;93376.22;5122513;27;20075;-70
2021/05/02 06:25:34;;;;;;;16.30;3.47;;;;;;;21.27;45.84;93381.97;5134488;27;20075;-71
2021/05/02 06:28:00;;;;;;;12.73;3.70;;;;;;;21.40;46.11;93380.34;5133399;27;20050;-70
2021/05/02 06:30:27;;;;;;;10.23;3.10;;;;;;;21.54;46.18;93376.09;5133546;27;20122;-71
2021/05/02 06:32:55;;;;;;;14.45;2.78;;;;;;;21.69;45.67;93374.84;5132390;27;20038;-71
2021/05/02 06:35:21;;;;;;;15.48;3.28;;;;;;;21.79;44.55;93373.25;5130173;27;20023;-71
2021/05/02 06:37:46;;;;;;;11.27;3.70;;;;;;;21.95;44.70;93387.09;5125961;27;20390;-71
2021/05/02 06:40:12;;;;;;;19.70;3.45;;;;;;;22.08;44.74;93389.34;5133267;27;20034;-71
2021/05/02 06:42:37;;;;;;;14.57;3.70;;;;;;;22.19;44.46;93390.81;5118466;27;20020;-71
2021/05/02 06:45:06;;;;;;;14.45;3.45;;;;;;;22.31;44.12;93386.09;5129893;27;20529;-71
2021/05/02 06:47:32;;;;;;;16.95;3.80;;;;;;;22.42;42.90;93376.72;5128097;27;20042;-71
2021/05/02 06:49:57;;;;;;;16.17;3.78;;;;;;;22.46;42.36;93371.25;5124615;27;20015;-70
2021/05/02 06:52:22;;;;;;;19.30;3.42;;;;;;;22.57;42.29;93377.41;5132888;27;20110;-71
2021/05/02 06:54:48;;;;;;;20.90;4.32;;;;;;;22.73;42.45;93363.25;5129955;27;20682;-71
2021/05/02 06:57:14;;;;;;;16.05;4.28;;;;;;;22.75;42.49;93360.16;5129458;27;20031;-71
2021/05/02 06:59:40;;;;;;;14.23;3.65;;;;;;;22.82;42.66;93360.09;5119630;27;20041;-71
2021/05/02 07:02:06;;;;;;;14.68;2.90;;;;;;;22.93;42.97;93370.84;5131931;27;20019;-70
2021/05/02 07:04:33;;;;;;;11.85;2.88;;;;;;;22.88;42.66;93361.19;5131124;27;20088;-71
2021/05/02 07:06:59;;;;;;;19.67;3.80;;;;;;;22.98;41.95;93384.00;5129717;27;20051;-70
2021/05/02 07:09:24;;;;;;;13.88;3.38;;;;;;;23.09;41.68;93367.63;5129771;27;20466;-71
2021/05/02 07:11:50;;;;;;;13.18;3.53;;;;;;;23.14;41.46;93356.28;5126372;27;20077;-70
2021/05/02 07:14:15;;;;;;;15.48;3.40;;;;;;;23.26;41.69;93361.19;5128509;27;20034;-71
2021/05/02 07:16:41;;;;;;;20.60;4.43;;;;;;;23.31;41.18;93358.06;5129541;27;20560;-70
2021/05/02 07:19:06;;;;;;;13.65;3.80;;;;;;;23.39;41.53;93375.81;5131275;27;20030;-70
2021/05/02 07:21:32;;;;;;;16.55;3.88;;;;;;;23.48;40.29;93382.72;5127095;27;20386;-70
2021/05/02 07:23:57;;;;;;;17.33;3.67;;;;;;;23.57;40.06;93374.81;5126374;27;20395;-70
2021/05/02 07:26:23;;;;;;;15.45;3.90;;;;;;;23.63;39.90;93384.88;5127147;27;20033;-70
2021/05/02 07:28:50;;;;;;;10.25;3.47;;;;;;;23.72;39.87;93380.88;5126222;27;20394;-71
2021/05/02 07:31:16;;;;;;;18.20;4.47;;;;;;;23.77;40.11;93386.66;5128542;27;20118;-71
2021/05/02 07:33:41;;;;;;;19.30;4.45;;;;;;;23.82;40.10;93402.53;5129413;28;20110;-70
2021/05/02 07:36:07;;;;;;;13.98;4.20;;;;;;;23.85;40.16;93413.78;5116782;28;20050;-70
2021/05/02 07:38:34;;;;;;;18.73;3.95;;;;;;;23.92;40.04;93410.97;5121793;28;20383;-69
2021/05/02 07:40:59;;;;;;;18.45;3.40;;;;;;;24.01;39.32;93413.94;5129763;28;20406;-71
2021/05/02 07:43:25;;;;;;;14.35;3.17;;;;;;;24.07;39.00;93420.47;5126853;27;20015;-80
2021/05/02 07:45:51;;;;;;;19.15;3.63;;;;;;;24.12;39.39;93414.59;5129523;28;20469;-68
2021/05/02 07:48:16;;;;;;;19.98;4.28;;;;;;;24.20;39.62;93423.41;5130850;27;20054;-66
2021/05/02 07:50:41;;;;;;;18.60;5.07;;;;;;;24.28;39.86;93426.81;5130911;27;20027;-76
2021/05/02 07:53:07;;;;;;;18.55;5.20;;;;;;;24.36;39.70;93417.34;5130419;27;20027;-77
2021/05/02 07:55:32;;;;;;;25.83;5.03;;;;;;;24.42;39.22;93426.59;5131791;27;20027;-77
2021/05/02 07:57:58;;;;;;;16.05;3.78;;;;;;;24.54;39.08;93422.56;5132613;27;20035;-77
2021/05/02 08:00:24;;;;;;;12.95;3.33;;;;;;;24.56;39.95;93431.84;5131453;27;20454;-75
2021/05/02 08:02:49;;;;;;;18.80;3.75;;;;;;;24.62;39.33;93411.13;5133652;27;20051;-76
2021/05/02 08:05:15;;;;;;;19.48;4.20;;;;;;;24.67;38.42;93420.81;5146194;27;20027;-71
2021/05/02 08:07:40;;;;;;;14.82;4.05;;;;;;;24.71;38.81;93415.28;5134930;27;20045;-76
2021/05/02 08:10:07;;;;;;;22.90;4.00;;;;;;;24.70;39.14;93417.25;5127624;27;20029;-76
2021/05/02 08:12:32;;;;;;;20.45;3.95;;;;;;;24.76;39.25;93410.16;5132059;27;20023;-76
2021/05/02 08:14:58;;;;;;;15.38;3.95;;;;;;;24.72;38.40;93416.84;5134908;27;20130;-74
2021/05/02 08:17:23;;;;;;;18.20;4.00;;;;;;;24.79;38.33;93422.16;5122992;27;20098;-72
2021/05/02 08:19:49;;;;;;;15.70;4.10;;;;;;;24.87;39.21;93426.31;5132660;27;20079;-72
2021/05/02 08:22:15;;;;;;;17.58;3.92;;;;;;;24.97;39.65;93421.88;5125774;27;20028;-74
2021/05/02 08:24:40;;;;;;;18.83;3.97;;;;;;;25.02;38.91;93430.34;5125890;27;20097;-72
2021/05/02 08:27:06;;;;;;;17.67;4.15;;;;;;;25.14;39.02;93426.25;5125915;27;20535;-74
2021/05/02 08:29:31;;;;;;;21.55;4.38;;;;;;;25.26;38.90;93427.66;5126499;27;20046;-72
2021/05/02 08:31:57;;;;;;;20.08;4.05;;;;;;;25.37;36.96;93430.16;5130983;27;20020;-70
2021/05/02 08:34:22;;;;;;;16.23;3.85;;;;;;;25.52;35.92;93420.50;5131879;27;20101;-72
2021/05/02 08:36:47;;;;;;;20.75;3.63;;;;;;;25.64;35.60;93427.31;5119352;27;20482;-72
2021/05/02 08:39:13;;;;;;;16.15;3.58;;;;;;;25.66;33.82;93427.66;5119503;27;20439;-72
2021/05/02 08:41:38;;;;;;;12.82;2.47;;;;;;;25.49;30.58;93424.09;5123293;27;20030;-72
2021/05/02 08:44:05;;;;;;;18.23;3.28;;;;;;;25.65;31.06;93415.22;5133646;27;20027;-72
2021/05/02 08:46:30;;;;;;;18.38;3.70;;;;;;;25.80;30.84;93421.16;5125613;27;20024;-76
2021/05/02 08:48:57;;;;;;;18.70;3.30;;;;;;;25.82;30.46;93416.03;5132818;27;20057;-71
2021/05/02 08:51:22;;;;;;;13.65;3.40;;;;;;;25.90;30.56;93424.91;5132678;27;20027;-71
2021/05/02 08:53:48;;;;;;;18.98;3.72;;;;;;;25.96;31.36;93421.25;5133286;27;20027;-73
2021/05/02 08:56:14;;;;;;;16.48;4.13;;;;;;;25.88;29.65;93416.31;5121694;27;20027;-72
2021/05/02 08:58:39;;;;;;;18.10;4.28;;;;;;;25.90;30.27;93413.97;5128957;27;20023;-73
2021/05/02 09:01:05;;;;;;;15.73;4.40;;;;;;;25.94;30.21;93420.88;5120121;27;20033;-73
2021/05/02 09:03:41;;;;;;;29.08;3.80;;;;;;;25.99;29.86;93412.22;5128064;27;20027;-71
2021/05/02 09:06:23;;;;;;;19.55;3.35;;;;;;;26.04;29.01;93399.25;5130066;27;20039;-71
2021/05/02 09:08:51;;;;;;;23.08;4.97;;;;;;;25.86;28.99;93399.59;5121057;27;20429;-70
2021/05/02 09:11:29;;;;;;;24.85;3.78;;;;;;;25.79;29.52;93398.56;5121445;27;20031;-70
2021/05/02 09:13:55;;;;;;;21.65;4.47;;;;;;;25.67;29.46;93380.09;5121870;27;20026;-70
2021/05/02 09:16:21;;;;;;;19.08;3.63;;;;;;;25.72;29.86;93381.56;5126187;27;20028;-70
2021/05/02 09:18:51;;;;;;;16.20;3.90;;;;;;;25.67;29.62;93377.38;5128701;27;20027;-70
2021/05/02 09:21:25;;;;;;;14.98;3.55;;;;;;;25.65;29.88;93373.53;5129290;27;20023;-71
2021/05/02 09:23:51;;;;;;;17.83;3.53;;;;;;;25.62;29.40;93366.94;5128770;27;20037;-70
2021/05/02 09:26:25;;;;;;;19.40;3.05;;;;;;;25.57;29.92;93378.34;5129319;27;20030;-71
2021/05/02 09:28:56;;;;;;;32.25;4.20;;;;;;;25.56;28.42;93384.97;5120757;27;20044;-72
2021/05/02 09:31:30;;;;;;;16.02;3.22;;;;;;;25.48;29.73;93370.72;5133128;27;20026;-72
2021/05/02 09:34:13;;;;;;;24.00;4.10;;;;;;;25.56;29.28;93372.09;5125280;27;20032;-72
2021/05/02 09:36:55;;;;;;;19.67;4.72;;;;;;;25.66;28.79;93385.97;5122763;27;20019;-72
2021/05/02 09:39:40;;;;;;;18.40;3.60;;;;;;;25.72;28.30;93365.94;5131673;27;20114;-71
2021/05/02 09:42:07;;;;;;;17.00;2.67;;;;;;;25.73;28.91;93364.75;5120421;27;20024;-72
2021/05/02 09:44:44;;;;;;;17.75;3.53;;;;;;;25.75;28.11;93380.72;5131564;27;20039;-72
2021/05/02 09:47:22;;;;;;;12.68;3.35;;;;;;;25.79;27.41;93374.00;5132805;27;20547;-72
2021/05/02 09:50:05;;;;;;;15.15;3.33;;;;;;;25.83;27.27;93352.84;5132729;27;20039;-72
2021/05/02 09:52:43;;;;;;;11.90;2.85;;;;;;;25.90;28.23;93371.06;5128337;27;20031;-72
2021/05/02 09:55:33;;;;;;;15.73;3.30;;;;;;;25.94;28.29;93358.09;5120006;27;20143;-72
2021/05/02 09:58:07;;;;;;;21.75;3.25;;;;;;;26.08;28.13;93353.53;5131321;27;20030;-72
2021/05/02 10:00:44;;;;;;;14.82;3.03;;;;;;;26.13;26.20;93351.03;5124456;27;20027;-72
2021/05/02 10:03:17;;;;;;;17.13;4.00;;;;;;;26.14;26.21;93358.06;5127866;27;20026;-72
2021/05/02 10:06:00;;;;;;;17.98;3.10;;;;;;;26.11;26.38;93347.97;5128968;27;20134;-72
2021/05/02 10:08:28;;;;;;;19.35;3.15;;;;;;;26.13;26.73;93359.22;5130818;27;20035;-71
2021/05/02 10:10:55;;;;;;;20.23;3.20;;;;;;;26.19;27.39;93343.88;5132260;27;20038;-71
2021/05/02 10:13:21;;;;;;;18.63;3.53;;;;;;;26.28;26.99;93351.50;5130860;27;20046;-71
2021/05/02 10:15:46;;;;;;;14.68;3.20;;;;;;;26.35;26.96;93334.94;5131715;27;20027;-71
2021/05/02 10:18:12;;;;;;;26.02;4.35;;;;;;;26.38;26.58;93331.34;5131668;27;20023;-72
2021/05/02 10:20:37;;;;;;;16.42;4.13;;;;;;;26.47;27.90;93332.72;5132550;27;20379;-71
2021/05/02 10:23:04;;;;;;;17.83;3.05;;;;;;;26.61;27.94;93327.69;5132312;27;20079;-71
2021/05/02 10:25:30;;;;;;;19.58;3.75;;;;;;;26.76;26.77;93327.34;5131924;27;20664;-71
2021/05/02 10:27:55;;;;;;;16.20;3.35;;;;;;;26.80;26.12;93328.00;5130584;27;20037;-72
2021/05/02 10:30:30;;;;;;;19.50;2.95;;;;;;;26.92;25.83;93321.84;5130567;27;20027;-71
2021/05/02 10:33:10;;;;;;;25.77;3.58;;;;;;;27.06;26.18;93328.91;5130238;27;20031;-72
2021/05/02 10:35:47;;;;;;;23.05;3.80;;;;;;;27.18;26.10;93333.66;5131880;27;20019;-72
2021/05/02 10:38:14;;;;;;;15.43;2.75;;;;;;;27.18;26.20;93336.38;5126346;27;20024;-72
2021/05/02 10:40:40;;;;;;;22.55;3.75;;;;;;;27.25;26.36;93348.38;5135631;27;20031;-72
2021/05/02 10:43:25;;;;;;;20.45;3.50;;;;;;;27.02;25.30;93364.53;5111168;28;20543;-70
2021/05/02 10:45:50;;;;;;;12.88;4.35;;;;;;;26.86;25.19;93318.09;5128934;27;20023;-72
2021/05/02 10:48:21;;;;;;;20.42;4.32;;;;;;;26.86;25.64;93314.59;5131391;27;20108;-72
2021/05/02 10:50:49;;;;;;;23.88;3.50;;;;;;;26.92;26.33;93313.63;5131579;27;20094;-72
2021/05/02 10:53:20;;;;;;;22.15;3.42;;;;;;;27.05;26.24;93312.91;5130358;27;20031;-72
2021/05/02 10:55:52;;;;;;;21.67;3.53;;;;;;;27.14;26.64;93310.34;5114717;27;20031;-72
2021/05/02 10:58:18;;;;;;;;;;;;;;;27.30;25.78;93304.84;5128427;27;20101;-72
2021/05/02 11:00:49;;;;;;;28.58;4.32;;;;;;;27.35;24.79;93309.00;5131576;27;19918;-72
2021/05/02 11:06:09;;;;;;;14.00;3.10;;;;;;;27.44;24.74;93297.41;5112480;27;20032;-70
2021/05/02 11:09:01;;;;;;;14.07;3.05;;;;;;;27.40;24.18;93308.47;5128752;27;20031;-70
2021/05/02 11:11:39;;;;;;;15.43;4.13;;;;;;;27.49;23.77;93292.16;5127455;27;20038;-70
2021/05/02 11:14:10;;;;;;;17.00;2.45;;;;;;;27.55;23.05;93317.03;5127970;27;20031;-72
2021/05/02 11:16:45;;;;;;;22.50;3.60;;;;;;;27.50;23.64;93292.94;5126392;27;20401;-71
2021/05/02 11:19:35;;;;;;;19.02;3.50;;;;;;;27.45;22.76;93291.50;5128715;27;20033;-71
2021/05/02 11:22:06;;;;;;;17.67;2.75;;;;;;;27.38;22.71;93289.00;5117235;27;20067;-71
2021/05/02 11:27:29;;;;;;;18.60;3.63;;;;;;;27.44;23.07;93289.19;5127995;27;20070;-71
2021/05/02 11:32:29;;;;;;;17.85;3.50;;;;;;;27.60;22.04;93278.19;5131125;27;20031;-70
2021/05/02 11:35:02;;;;;;;20.27;3.25;;;;;;;27.67;22.60;93264.28;5129821;28;20031;-71
2021/05/02 11:37:42;;;;;;;12.27;2.92;;;;;;;27.83;22.52;93260.69;5131048;27;20053;-70
2021/05/02 11:40:33;;;;;;;17.25;2.83;;;;;;;27.96;20.81;93252.47;5130843;27;20019;-70